Time;durP1;ratioP1;P1;durP2;ratioP2;P2;SDS_P1;SDS_P2;PMS_P1;PMS_P2;Temp;Humidity;BMP_temperature;BMP_pressure;BME280_temperature;BME280_humidity;BME280_pressure;Samples;Min_cycle;Max_cycle;Signal;HPM_P1;HPM_P2
2023/01/01 00:00:42;;;;;;;1.75;1.42;;;;;;;;;;5136852;27;20777;-57
2023/01/01 00:03:11;;;;;;;1.70;1.60;;;;;;;;;;5137179;27;20311;-57
2023/01/01 00:05:39;;;;;;;1.95;1.50;;;;;;;;;;5136026;27;20271;-57
2023/01/01 00:08:06;;;;;;;1.90;1.80;;;;;;;;;;5136540;27;20486;-57
2023/01/01 00:10:34;;;;;;;1.80;1.60;;;;;;;;;;5129724;27;20287;-57
2023/01/01 00:13:02;;;;;;;1.60;1.40;;;;;;;;;;5115407;28;20205;-57
2023/01/01 00:15:30;;;;;;;2.78;1.65;;;;;;;;;;5115329;28;20199;-58
2023/01/01 00:17:58;;;;;;;1.67;1.58;;;;;;;;;;5116031;28;20221;-58
2023/01/01 00:20:27;;;;;;;1.90;1.80;;;;;;;;;;5115664;28;20206;-57
2023/01/01 00:22:54;;;;;;;2.20;1.90;;;;;;;;;;5116041;28;20203;-57
2023/01/01 00:25:22;;;;;;;1.80;1.70;;;;;;;;;;5115395;28;20234;-57
2023/01/01 00:27:50;;;;;;;2.00;1.90;;;;;;;;;;5115714;28;20592;-57
2023/01/01 00:30:18;;;;;;;3.13;1.92;;;;;;;;;;5115680;28;20238;-57
2023/01/01 00:32:45;;;;;;;2.10;2.00;;;;;;;;;;5115983;28;20256;-57
2023/01/01 00:35:13;;;;;;;2.20;2.05;;;;;;;;;;5116119;28;20195;-57
2023/01/01 00:37:42;;;;;;;2.20;2.00;;;;;;;;;;5116523;28;20266;-57
2023/01/01 00:40:11;;;;;;;2.10;2.00;;;;;;;;;;5116148;28;20199;-57
2023/01/01 00:42:40;;;;;;;2.38;2.17;;;;;;;;;;5119037;28;20253;-57
2023/01/01 00:45:08;;;;;;;1.95;1.85;;;;;;;;;;5119842;28;20250;-57
2023/01/01 00:47:36;;;;;;;2.35;1.88;;;;;;;;;;5120352;28;20198;-57
2023/01/01 00:50:04;;;;;;;2.30;2.20;;;;;;;;;;5120432;28;20217;-57
2023/01/01 00:52:31;;;;;;;2.65;1.95;;;;;;;;;;5121030;28;20202;-57
2023/01/01 00:55:01;;;;;;;2.08;1.98;;;;;;;;;;5120284;28;20593;-57
2023/01/01 00:57:29;;;;;;;2.20;2.00;;;;;;;;;;5120088;28;20203;-57
2023/01/01 00:59:56;;;;;;;2.25;2.05;;;;;;;;;;5135775;27;20230;-58
2023/01/01 01:02:24;;;;;;;2.20;2.00;;;;;;;;;;5140117;27;20198;-57
2023/01/01 01:04:52;;;;;;;2.25;2.05;;;;;;;;;;5140876;27;20237;-57
2023/01/01 01:07:20;;;;;;;2.20;2.00;;;;;;;;;;5140153;27;20246;-57
2023/01/01 01:09:48;;;;;;;2.30;2.10;;;;;;;;;;5141165;27;20342;-57
2023/01/01 01:12:17;;;;;;;2.13;1.92;;;;;;;;;;5141213;27;20653;-57
2023/01/01 01:14:45;;;;;;;2.30;2.10;;;;;;;;;;5140303;27;20259;-57
2023/01/01 01:17:12;;;;;;;2.13;1.70;;;;;;;;;;5140391;27;20256;-57
2023/01/01 01:19:40;;;;;;;2.40;2.20;;;;;;;;;;5140451;27;20202;-57
2023/01/01 01:22:08;;;;;;;1.90;1.80;;;;;;;;;;5140685;27;20287;-57
2023/01/01 01:24:36;;;;;;;2.55;2.35;;;;;;;;;;5140981;27;20222;-57
2023/01/01 01:27:04;;;;;;;2.38;2.17;;;;;;;;;;5139516;27;20321;-57
2023/01/01 01:29:33;;;;;;;2.60;2.40;;;;;;;;;;5140779;27;20202;-57
2023/01/01 01:32:01;;;;;;;2.55;2.35;;;;;;;;;;5140554;27;20210;-57
2023/01/01 01:34:28;;;;;;;2.42;2.22;;;;;;;;;;5140042;27;20247;-58
2023/01/01 01:36:56;;;;;;;2.20;2.10;;;;;;;;;;5140132;27;20202;-57
2023/01/01 01:39:24;;;;;;;2.35;2.15;;;;;;;;;;5140298;27;20289;-57
2023/01/01 01:41:52;;;;;;;2.58;2.38;;;;;;;;;;5139614;27;20202;-57
2023/01/01 01:44:38;;;;;;;2.00;1.90;;;;;;;;;;5140454;27;20202;-57
2023/01/01 01:47:10;;;;;;;2.60;2.40;;;;;;;;;;5141079;27;20206;-57
2023/01/01 01:49:38;;;;;;;2.42;2.22;;;;;;;;;;5140394;27;20217;-57
2023/01/01 01:52:06;;;;;;;2.53;2.33;;;;;;;;;;5140368;27;20491;-58
2023/01/01 01:54:33;;;;;;;2.00;1.90;;;;;;;;;;5140862;27;20204;-57
2023/01/01 01:57:02;;;;;;;2.10;1.98;;;;;;;;;;5140057;27;20592;-58
2023/01/01 01:59:32;;;;;;;2.60;2.40;;;;;;;;;;5139551;27;20242;-57
2023/01/01 02:02:00;;;;;;;2.30;2.10;;;;;;;;;;5139747;27;20210;-57
2023/01/01 02:04:29;;;;;;;2.40;2.20;;;;;;;;;;5140087;27;20565;-58
2023/01/01 02:06:58;;;;;;;2.10;2.00;;;;;;;;;;5140964;27;20206;-57
2023/01/01 02:09:25;;;;;;;2.40;2.20;;;;;;;;;;5140483;27;20210;-57
2023/01/01 02:11:53;;;;;;;2.55;2.35;;;;;;;;;;5140951;27;20253;-58
2023/01/01 02:14:21;;;;;;;2.35;2.15;;;;;;;;;;5141231;27;20214;-57
2023/01/01 02:16:51;;;;;;;2.58;2.38;;;;;;;;;;5140721;27;20220;-57
2023/01/01 02:19:24;;;;;;;2.40;2.20;;;;;;;;;;5140598;27;20242;-58
2023/01/01 02:21:58;;;;;;;2.35;2.15;;;;;;;;;;5140452;27;20600;-57
2023/01/01 02:24:37;;;;;;;2.70;2.22;;;;;;;;;;5140515;27;20247;-58
2023/01/01 02:27:07;;;;;;;2.40;2.20;;;;;;;;;;5140511;27;20241;-57
2023/01/01 02:29:40;;;;;;;2.53;2.33;;;;;;;;;;5139635;27;20470;-57
2023/01/01 02:32:10;;;;;;;2.42;2.25;;;;;;;;;;5140070;27;20194;-58
2023/01/01 02:34:40;;;;;;;2.65;2.45;;;;;;;;;;5139622;27;20285;-57
2023/01/01 02:37:10;;;;;;;2.17;2.08;;;;;;;;;;5139651;27;20194;-58
2023/01/01 02:39:39;;;;;;;2.15;2.05;;;;;;;;;;5140424;27;20202;-57
2023/01/01 02:42:08;;;;;;;2.50;2.30;;;;;;;;;;5139799;27;20202;-57
2023/01/01 02:44:41;;;;;;;2.40;2.20;;;;;;;;;;5139927;27;20245;-57
2023/01/01 02:47:09;;;;;;;2.47;2.28;;;;;;;;;;5140106;27;20206;-57
2023/01/01 02:49:38;;;;;;;2.40;2.28;;;;;;;;;;5140028;27;20206;-58
2023/01/01 02:52:08;;;;;;;2.38;2.17;;;;;;;;;;5139791;27;20610;-58
2023/01/01 02:54:38;;;;;;;2.30;2.10;;;;;;;;;;5135282;27;20241;-57
2023/01/01 02:57:11;;;;;;;2.10;1.90;;;;;;;;;;5128729;27;20229;-57
2023/01/01 03:02:40;;;;;;;2.50;2.30;;;;;;;;;;5118635;28;20202;-57
2023/01/01 03:05:10;;;;;;;2.17;2.08;;;;;;;;;;5118651;28;20219;-57
2023/01/01 03:07:42;;;;;;;2.22;2.05;;;;;;;;;;5119374;28;20207;-57
2023/01/01 03:10:14;;;;;;;2.53;2.33;;;;;;;;;;5119573;28;20590;-57
2023/01/01 03:12:44;;;;;;;2.47;2.28;;;;;;;;;;5119722;28;20210;-57
2023/01/01 03:15:20;;;;;;;2.47;2.28;;;;;;;;;;5119238;28;20227;-57
2023/01/01 03:17:51;;;;;;;2.40;2.20;;;;;;;;;;5119348;28;20457;-58
2023/01/01 03:20:22;;;;;;;2.70;2.50;;;;;;;;;;5119152;28;20513;-58
2023/01/01 03:22:51;;;;;;;2.33;2.15;;;;;;;;;;5119102;28;20214;-57
2023/01/01 03:25:21;;;;;;;2.50;2.30;;;;;;;;;;5119697;28;20222;-58
2023/01/01 03:27:50;;;;;;;2.63;2.42;;;;;;;;;;5119500;28;20290;-57
2023/01/01 03:30:21;;;;;;;2.60;2.40;;;;;;;;;;5119282;28;20302;-58
2023/01/01 03:33:03;;;;;;;2.45;2.25;;;;;;;;;;5119722;28;20203;-57
2023/01/01 03:35:35;;;;;;;2.50;2.30;;;;;;;;;;5118822;28;20215;-57
2023/01/01 03:38:04;;;;;;;2.30;2.10;;;;;;;;;;5118449;28;20571;-57
2023/01/01 03:40:34;;;;;;;2.95;2.40;;;;;;;;;;5119164;28;20203;-57
2023/01/01 03:43:04;;;;;;;2.72;2.53;;;;;;;;;;5119139;28;20207;-57
2023/01/01 03:45:36;;;;;;;2.45;2.25;;;;;;;;;;5119413;28;20219;-57
2023/01/01 03:48:04;;;;;;;2.60;2.40;;;;;;;;;;5118783;28;20207;-57
2023/01/01 03:50:38;;;;;;;2.67;2.47;;;;;;;;;;5118878;28;20284;-58
2023/01/01 03:53:09;;;;;;;2.70;2.50;;;;;;;;;;5119074;28;20277;-57
2023/01/01 03:55:38;;;;;;;2.22;2.10;;;;;;;;;;5119166;28;20199;-57
2023/01/01 03:58:11;;;;;;;2.50;2.30;;;;;;;;;;5118722;28;20224;-57
2023/01/01 04:00:45;;;;;;;2.30;2.10;;;;;;;;;;5119143;28;20263;-58
2023/01/01 04:03:17;;;;;;;2.33;2.20;;;;;;;;;;5118991;28;20273;-58
2023/01/01 04:05:45;;;;;;;2.17;2.05;;;;;;;;;;5118691;28;20226;-58
2023/01/01 04:08:13;;;;;;;2.70;2.50;;;;;;;;;;5118472;28;20585;-57
2023/01/01 04:10:44;;;;;;;2.50;2.30;;;;;;;;;;5118557;28;20211;-57
2023/01/01 04:13:11;;;;;;;2.70;2.50;;;;;;;;;;5118869;28;20256;-57
2023/01/01 04:15:41;;;;;;;2.30;2.10;;;;;;;;;;5118027;28;20315;-57
2023/01/01 04:18:08;;;;;;;2.58;2.38;;;;;;;;;;5118661;28;20214;-57
2023/01/01 04:20:36;;;;;;;2.10;2.00;;;;;;;;;;5118726;28;20209;-58
2023/01/01 04:23:04;;;;;;;2.50;2.30;;;;;;;;;;5118705;28;20276;-58
2023/01/01 04:25:32;;;;;;;2.35;2.25;;;;;;;;;;5118719;28;20231;-57
2023/01/01 04:28:02;;;;;;;2.30;2.20;;;;;;;;;;5118554;28;20228;-57
2023/01/01 04:30:30;;;;;;;2.53;2.33;;;;;;;;;;5118614;28;20203;-57
2023/01/01 04:32:59;;;;;;;2.20;2.10;;;;;;;;;;5118527;28;20217;-57
2023/01/01 04:35:27;;;;;;;2.40;2.20;;;;;;;;;;5118201;28;20209;-57
2023/01/01 04:37:54;;;;;;;2.40;2.20;;;;;;;;;;5118609;28;20537;-57
2023/01/01 04:40:22;;;;;;;2.10;2.00;;;;;;;;;;5118249;28;20449;-57
2023/01/01 04:42:50;;;;;;;2.50;2.30;;;;;;;;;;5117770;28;20247;-57
2023/01/01 04:45:18;;;;;;;2.28;2.17;;;;;;;;;;5118083;28;20203;-57
2023/01/01 04:47:45;;;;;;;2.38;2.17;;;;;;;;;;5118485;28;20706;-57
2023/01/01 04:50:15;;;;;;;2.22;2.03;;;;;;;;;;5117969;28;20213;-57
2023/01/01 04:52:42;;;;;;;2.38;2.17;;;;;;;;;;5117911;28;20203;-57
2023/01/01 04:55:10;;;;;;;2.03;1.92;;;;;;;;;;5117374;28;20578;-57
2023/01/01 04:57:38;;;;;;;2.15;2.00;;;;;;;;;;5117847;28;20585;-57
2023/01/01 05:00:08;;;;;;;2.05;1.95;;;;;;;;;;5101478;28;20242;-57
2023/01/01 05:02:36;;;;;;;2.38;2.17;;;;;;;;;;5097837;28;20211;-57
2023/01/01 05:05:03;;;;;;;2.35;2.15;;;;;;;;;;5097814;28;20294;-57
2023/01/01 05:07:33;;;;;;;2.40;2.25;;;;;;;;;;5097288;28;20233;-57
2023/01/01 05:10:00;;;;;;;2.00;1.90;;;;;;;;;;5097872;28;20662;-57
2023/01/01 05:12:30;;;;;;;2.60;2.40;;;;;;;;;;5097150;28;20287;-57
2023/01/01 05:14:58;;;;;;;2.20;2.10;;;;;;;;;;5097459;28;20302;-57
2023/01/01 05:17:26;;;;;;;2.30;2.10;;;;;;;;;;5097479;28;20210;-57
2023/01/01 05:19:53;;;;;;;1.98;1.88;;;;;;;;;;5097303;28;20302;-57
2023/01/01 05:22:21;;;;;;;2.35;2.20;;;;;;;;;;5097461;28;20686;-57
2023/01/01 05:24:49;;;;;;;2.35;2.15;;;;;;;;;;5097161;28;20203;-57
2023/01/01 05:27:17;;;;;;;2.40;2.20;;;;;;;;;;5097613;28;20227;-57
2023/01/01 05:29:44;;;;;;;2.20;2.10;;;;;;;;;;5100467;28;20209;-57
2023/01/01 05:32:12;;;;;;;2.00;1.90;;;;;;;;;;5100952;28;20665;-58
2023/01/01 05:34:39;;;;;;;2.10;2.00;;;;;;;;;;5101321;28;20302;-57
2023/01/01 05:37:07;;;;;;;1.90;1.80;;;;;;;;;;5101236;28;20279;-57
2023/01/01 05:39:35;;;;;;;2.22;2.10;;;;;;;;;;5101407;28;20204;-57
2023/01/01 05:42:04;;;;;;;1.88;1.77;;;;;;;;;;5101309;28;20208;-58
2023/01/01 05:44:32;;;;;;;2.20;2.00;;;;;;;;;;5100979;28;20204;-57
2023/01/01 05:47:00;;;;;;;2.10;2.00;;;;;;;;;;5100661;28;20227;-57
2023/01/01 05:49:27;;;;;;;2.03;1.92;;;;;;;;;;5100692;28;20203;-57
2023/01/01 05:51:54;;;;;;;2.00;1.90;;;;;;;;;;5101024;28;20211;-57
2023/01/01 05:54:22;;;;;;;2.13;1.98;;;;;;;;;;5100542;28;20214;-57
2023/01/01 05:56:49;;;;;;;1.88;1.77;;;;;;;;;;5100506;28;20259;-58
2023/01/01 05:59:18;;;;;;;2.15;2.00;;;;;;;;;;5120507;27;20320;-57
2023/01/01 06:01:45;;;;;;;2.08;1.98;;;;;;;;;;5141463;27;20202;-57
2023/01/01 06:04:13;;;;;;;2.05;1.95;;;;;;;;;;5141424;27;20221;-57
2023/01/01 06:06:41;;;;;;;2.33;2.13;;;;;;;;;;5141511;27;20245;-57
2023/01/01 06:09:08;;;;;;;1.90;1.80;;;;;;;;;;5141380;27;20300;-57
2023/01/01 06:11:36;;;;;;;2.20;2.05;;;;;;;;;;5141214;27;20600;-57
2023/01/01 06:14:03;;;;;;;1.88;1.77;;;;;;;;;;5141632;27;20306;-57
2023/01/01 06:16:32;;;;;;;2.13;2.03;;;;;;;;;;5141504;27;20304;-57
2023/01/01 06:19:00;;;;;;;2.10;2.00;;;;;;;;;;5140881;27;20288;-57
2023/01/01 06:21:28;;;;;;;1.95;1.85;;;;;;;;;;5141224;27;20298;-57
2023/01/01 06:23:56;;;;;;;2.38;2.17;;;;;;;;;;5141289;27;20202;-57
2023/01/01 06:26:24;;;;;;;2.10;2.00;;;;;;;;;;5141650;27;20317;-57
2023/01/01 06:28:52;;;;;;;2.35;2.15;;;;;;;;;;5141243;27;20292;-57
2023/01/01 06:31:20;;;;;;;2.10;2.00;;;;;;;;;;5141037;27;20297;-57
2023/01/01 06:33:50;;;;;;;2.00;1.90;;;;;;;;;;5141168;27;20202;-57
2023/01/01 06:36:18;;;;;;;2.30;2.10;;;;;;;;;;5140971;27;20198;-57
2023/01/01 06:38:46;;;;;;;2.00;1.90;;;;;;;;;;5139886;27;20661;-57
2023/01/01 06:41:15;;;;;;;1.92;1.83;;;;;;;;;;5140960;27;20297;-57
2023/01/01 06:43:43;;;;;;;2.20;2.00;;;;;;;;;;5141009;27;20284;-57
2023/01/01 06:46:15;;;;;;;2.20;2.10;;;;;;;;;;5140632;27;20222;-57
2023/01/01 06:48:42;;;;;;;2.33;2.13;;;;;;;;;;5141073;27;20304;-57
2023/01/01 06:51:12;;;;;;;2.45;2.25;;;;;;;;;;5140909;27;20256;-57
2023/01/01 06:53:39;;;;;;;2.10;1.98;;;;;;;;;;5140966;27;20210;-57
2023/01/01 06:56:07;;;;;;;2.20;2.10;;;;;;;;;;5140762;27;20472;-57
2023/01/01 06:58:35;;;;;;;2.10;2.00;;;;;;;;;;5140633;27;20222;-57
2023/01/01 07:01:06;;;;;;;2.10;2.00;;;;;;;;;;5140748;27;20517;-57
2023/01/01 07:03:33;;;;;;;2.40;2.20;;;;;;;;;;5140934;27;20556;-57
2023/01/01 07:06:01;;;;;;;2.20;2.08;;;;;;;;;;5139994;27;20209;-57
2023/01/01 07:08:30;;;;;;;2.13;1.92;;;;;;;;;;5140110;27;20210;-57
2023/01/01 07:10:57;;;;;;;1.92;1.83;;;;;;;;;;5140665;27;20202;-57
2023/01/01 07:13:25;;;;;;;2.25;2.08;;;;;;;;;;5140415;27;20298;-57
2023/01/01 07:15:53;;;;;;;2.38;2.17;;;;;;;;;;5140279;27;20209;-57
2023/01/01 07:18:21;;;;;;;1.90;1.80;;;;;;;;;;5140369;27;20479;-57
2023/01/01 07:20:49;;;;;;;2.47;2.28;;;;;;;;;;5140235;27;20496;-57
2023/01/01 07:23:17;;;;;;;2.15;1.95;;;;;;;;;;5139604;27;20202;-57
2023/01/01 07:25:46;;;;;;;2.40;2.20;;;;;;;;;;5140108;27;20289;-57
2023/01/01 07:28:13;;;;;;;2.20;2.10;;;;;;;;;;5139838;27;20276;-58
2023/01/01 07:30:41;;;;;;;2.42;2.22;;;;;;;;;;5139278;27;20202;-57
2023/01/01 07:33:11;;;;;;;2.30;2.10;;;;;;;;;;5139958;27;20202;-57
2023/01/01 07:35:38;;;;;;;2.55;2.35;;;;;;;;;;5139667;27;20214;-57
2023/01/01 07:38:06;;;;;;;2.20;2.10;;;;;;;;;;5139613;27;20198;-57
2023/01/01 07:40:33;;;;;;;2.60;2.40;;;;;;;;;;5139650;27;20202;-57
2023/01/01 07:43:02;;;;;;;2.50;2.30;;;;;;;;;;5139867;27;20212;-57
2023/01/01 07:45:30;;;;;;;2.22;2.13;;;;;;;;;;5139641;27;20620;-57
2023/01/01 07:47:58;;;;;;;2.40;2.20;;;;;;;;;;5139284;27;20262;-57
2023/01/01 07:50:26;;;;;;;2.83;2.63;;;;;;;;;;5139609;27;20549;-57
2023/01/01 07:52:54;;;;;;;2.50;2.30;;;;;;;;;;5139509;27;20209;-57
2023/01/01 07:55:21;;;;;;;2.17;2.03;;;;;;;;;;5140180;27;20202;-57
2023/01/01 07:57:49;;;;;;;2.22;2.13;;;;;;;;;;5139845;27;20198;-57
2023/01/01 08:00:19;;;;;;;2.30;2.10;;;;;;;;;;5138746;27;20234;-57
2023/01/01 08:02:46;;;;;;;2.30;2.10;;;;;;;;;;5139393;27;20206;-57
2023/01/01 08:05:14;;;;;;;2.40;2.20;;;;;;;;;;5139478;27;20816;-57
2023/01/01 08:07:46;;;;;;;2.38;2.17;;;;;;;;;;5139337;27;20248;-57
2023/01/01 08:10:13;;;;;;;2.30;2.10;;;;;;;;;;5138871;27;20202;-57
2023/01/01 08:12:40;;;;;;;2.00;1.90;;;;;;;;;;5138955;27;20209;-57
2023/01/01 08:15:09;;;;;;;2.30;2.10;;;;;;;;;;5139501;27;20309;-57
2023/01/01 08:17:37;;;;;;;2.45;2.25;;;;;;;;;;5139119;27;20199;-57
2023/01/01 08:20:06;;;;;;;2.53;2.33;;;;;;;;;;5139059;27;20229;-57
2023/01/01 08:22:33;;;;;;;2.20;2.05;;;;;;;;;;5139101;27;20296;-57
2023/01/01 08:25:00;;;;;;;2.20;2.03;;;;;;;;;;5139070;27;20301;-58
2023/01/01 08:27:28;;;;;;;2.45;2.25;;;;;;;;;;5139195;27;20519;-58
2023/01/01 08:29:55;;;;;;;2.33;2.13;;;;;;;;;;5138598;27;20282;-57
2023/01/01 08:32:23;;;;;;;2.17;2.08;;;;;;;;;;5137816;27;20289;-57
2023/01/01 08:34:52;;;;;;;2.17;2.08;;;;;;;;;;5137707;27;20230;-58
2023/01/01 08:37:20;;;;;;;2.63;2.42;;;;;;;;;;5138332;27;20660;-57
2023/01/01 08:39:49;;;;;;;2.50;2.30;;;;;;;;;;5137817;28;20296;-57
2023/01/01 08:42:17;;;;;;;2.22;2.03;;;;;;;;;;5138041;28;20210;-57
2023/01/01 08:44:44;;;;;;;2.50;2.30;;;;;;;;;;5138083;28;20308;-57
2023/01/01 08:47:17;;;;;;;2.35;2.15;;;;;;;;;;5138586;28;20320;-57
2023/01/01 08:49:45;;;;;;;2.17;2.00;;;;;;;;;;5137921;28;20214;-57
2023/01/01 08:52:14;;;;;;;2.50;2.30;;;;;;;;;;5136981;28;20202;-57
2023/01/01 08:54:41;;;;;;;2.20;2.00;;;;;;;;;;5137590;28;20294;-58
2023/01/01 08:57:09;;;;;;;2.40;2.20;;;;;;;;;;5137543;28;20300;-57
2023/01/01 08:59:36;;;;;;;1.95;1.80;;;;;;;;;;5137539;28;20230;-57
2023/01/01 09:02:04;;;;;;;2.20;2.00;;;;;;;;;;5137864;27;20206;-58
2023/01/01 09:04:31;;;;;;;2.35;2.17;;;;;;;;;;5141321;27;20202;-57
2023/01/01 09:06:59;;;;;;;2.38;2.28;;;;;;;;;;5141531;27;20321;-57
2023/01/01 09:09:27;;;;;;;2.13;1.98;;;;;;;;;;5141737;27;20289;-57
2023/01/01 09:11:56;;;;;;;2.25;2.05;;;;;;;;;;5141539;27;20569;-57
2023/01/01 09:14:23;;;;;;;2.35;2.15;;;;;;;;;;5141348;27;20202;-57
2023/01/01 09:16:51;;;;;;;2.40;2.20;;;;;;;;;;5141428;27;20204;-58
2023/01/01 09:19:18;;;;;;;2.30;2.10;;;;;;;;;;5141017;27;20212;-57
2023/01/01 09:21:46;;;;;;;2.22;2.05;;;;;;;;;;5141420;27;20202;-57
2023/01/01 09:24:13;;;;;;;2.05;1.92;;;;;;;;;;5141863;27;20194;-57
2023/01/01 09:26:42;;;;;;;2.13;1.92;;;;;;;;;;5141364;27;20297;-57
2023/01/01 09:29:10;;;;;;;2.45;2.25;;;;;;;;;;5141632;27;20517;-57
2023/01/01 09:31:37;;;;;;;2.30;2.10;;;;;;;;;;5141034;27;20296;-57
2023/01/01 09:34:05;;;;;;;2.17;1.90;;;;;;;;;;5141152;27;20214;-57
2023/01/01 09:36:33;;;;;;;2.22;2.05;;;;;;;;;;5141538;27;20216;-57
2023/01/01 09:39:01;;;;;;;2.28;2.10;;;;;;;;;;5140660;27;20617;-58
2023/01/01 09:41:36;;;;;;;2.10;1.90;;;;;;;;;;5140972;27;20213;-57
2023/01/01 09:44:10;;;;;;;1.95;1.85;;;;;;;;;;5141191;27;20217;-58
2023/01/01 09:46:37;;;;;;;2.22;2.03;;;;;;;;;;5141279;27;20292;-58
2023/01/01 09:49:07;;;;;;;2.15;2.03;;;;;;;;;;5141568;27;20240;-57
2023/01/01 09:51:36;;;;;;;2.20;2.10;;;;;;;;;;5140851;27;20202;-57
2023/01/01 09:54:08;;;;;;;1.80;1.70;;;;;;;;;;5140589;27;20283;-57
2023/01/01 09:56:36;;;;;;;2.35;2.15;;;;;;;;;;5140314;27;20296;-58
2023/01/01 09:59:05;;;;;;;2.17;2.08;;;;;;;;;;5140319;27;20318;-57
2023/01/01 10:01:36;;;;;;;2.30;2.10;;;;;;;;;;5141060;27;20237;-58
2023/01/01 10:04:11;;;;;;;2.40;2.20;;;;;;;;;;5141105;27;20208;-57
2023/01/01 10:06:41;;;;;;;2.40;2.20;;;;;;;;;;5140373;27;20292;-58
2023/01/01 10:09:13;;;;;;;2.30;2.10;;;;;;;;;;5140846;27;20502;-58
2023/01/01 10:11:44;;;;;;;2.30;2.10;;;;;;;;;;5140998;27;20234;-57
2023/01/01 10:14:18;;;;;;;2.25;2.05;;;;;;;;;;5139187;27;20593;-57
2023/01/01 10:16:47;;;;;;;2.25;2.05;;;;;;;;;;5140457;27;20220;-58
2023/01/01 10:19:21;;;;;;;2.20;2.00;;;;;;;;;;5139421;27;20202;-57
2023/01/01 10:21:50;;;;;;;2.20;2.00;;;;;;;;;;5139457;27;20203;-58
2023/01/01 10:24:26;;;;;;;1.95;1.85;;;;;;;;;;5139344;27;20200;-57
2023/01/01 10:26:54;;;;;;;2.00;1.90;;;;;;;;;;5139869;27;20672;-58
2023/01/01 10:29:25;;;;;;;1.83;1.73;;;;;;;;;;5139708;27;20198;-58
2023/01/01 10:31:55;;;;;;;2.00;1.90;;;;;;;;;;5140123;27;20298;-57
2023/01/01 10:34:24;;;;;;;2.42;2.30;;;;;;;;;;5139655;27;20577;-57
2023/01/01 10:36:53;;;;;;;2.05;1.95;;;;;;;;;;5139953;27;20309;-58
2023/01/01 10:39:21;;;;;;;2.00;1.90;;;;;;;;;;5139091;27;20309;-57
2023/01/01 10:41:48;;;;;;;2.10;1.92;;;;;;;;;;5139323;27;20340;-57
2023/01/01 10:44:16;;;;;;;2.20;2.03;;;;;;;;;;5139672;27;20655;-57
2023/01/01 10:46:47;;;;;;;2.15;1.95;;;;;;;;;;5139372;27;20774;-57
2023/01/01 10:49:15;;;;;;;2.15;1.90;;;;;;;;;;5139431;27;20286;-58
2023/01/01 10:51:45;;;;;;;2.30;2.10;;;;;;;;;;5139100;27;20203;-57
2023/01/01 10:54:39;;;;;;;2.40;1.90;;;;;;;;;;5139225;27;20237;-57
2023/01/01 10:57:15;;;;;;;2.75;2.22;;;;;;;;;;5079801;27;20209;-57
2023/01/01 10:59:43;;;;;;;2.33;2.05;;;;;;;;;;5139662;27;20236;-57
2023/01/01 11:02:19;;;;;;;2.42;1.95;;;;;;;;;;5139284;27;20194;-57
2023/01/01 11:04:46;;;;;;;2.20;2.00;;;;;;;;;;5138604;27;20300;-57
2023/01/01 11:07:23;;;;;;;2.30;2.10;;;;;;;;;;5139397;27;20223;-57
2023/01/01 11:09:50;;;;;;;2.05;1.70;;;;;;;;;;5139260;27;20201;-58
2023/01/01 11:12:19;;;;;;;2.55;1.90;;;;;;;;;;5139660;27;20304;-57
2023/01/01 11:14:51;;;;;;;2.85;2.08;;;;;;;;;;5139446;27;20202;-57
2023/01/01 11:17:23;;;;;;;3.30;1.90;;;;;;;;;;5139854;27;20476;-58
2023/01/01 11:19:51;;;;;;;2.28;2.03;;;;;;;;;;5140282;27;20499;-57
2023/01/01 11:22:33;;;;;;;2.47;2.28;;;;;;;;;;5139672;27;20305;-57
2023/01/01 11:25:01;;;;;;;3.60;2.17;;;;;;;;;;5138441;27;20316;-58
2023/01/01 11:27:29;;;;;;;2.50;2.00;;;;;;;;;;5138766;27;20202;-58
2023/01/01 11:30:17;;;;;;;4.57;2.08;;;;;;;;;;5138789;27;20202;-57
2023/01/01 11:32:46;;;;;;;3.13;2.00;;;;;;;;;;5138343;27;20212;-57
2023/01/01 11:35:18;;;;;;;2.70;2.08;;;;;;;;;;5137659;27;20212;-57
2023/01/01 11:37:46;;;;;;;3.35;2.15;;;;;;;;;;5137694;27;20210;-57
2023/01/01 11:40:17;;;;;;;2.08;1.88;;;;;;;;;;5139047;27;20194;-58
2023/01/01 11:42:47;;;;;;;2.95;2.22;;;;;;;;;;5138422;27;20480;-57
2023/01/01 11:45:17;;;;;;;2.90;2.00;;;;;;;;;;5139300;27;20231;-57
2023/01/01 11:47:51;;;;;;;2.78;2.03;;;;;;;;;;5138259;27;20225;-57
2023/01/01 11:50:22;;;;;;;3.05;2.00;;;;;;;;;;5137982;27;20208;-58
2023/01/01 11:52:50;;;;;;;2.95;2.10;;;;;;;;;;5138273;27;20294;-57
2023/01/01 11:55:23;;;;;;;2.55;2.10;;;;;;;;;;5138298;27;20202;-57
2023/01/01 11:58:03;;;;;;;3.15;2.10;;;;;;;;;;5138211;27;20202;-57
2023/01/01 12:00:33;;;;;;;2.28;2.00;;;;;;;;;;5138593;27;20264;-58
2023/01/01 12:03:05;;;;;;;2.30;2.05;;;;;;;;;;5138230;27;20202;-58
2023/01/01 12:05:39;;;;;;;3.42;1.90;;;;;;;;;;5137976;27;20216;-57
2023/01/01 12:08:09;;;;;;;2.25;2.05;;;;;;;;;;5138562;27;20586;-57
2023/01/01 12:10:42;;;;;;;2.72;1.90;;;;;;;;;;5138171;27;20202;-57
2023/01/01 12:13:15;;;;;;;2.58;2.10;;;;;;;;;;5138732;27;20309;-57
2023/01/01 12:15:47;;;;;;;2.13;1.92;;;;;;;;;;5139015;27;20229;-58
2023/01/01 12:18:22;;;;;;;3.13;1.73;;;;;;;;;;5138904;27;20299;-57
2023/01/01 12:20:51;;;;;;;2.55;1.88;;;;;;;;;;5138683;27;20484;-57
2023/01/01 12:23:19;;;;;;;2.28;2.08;;;;;;;;;;5137427;27;20285;-57
2023/01/01 12:25:54;;;;;;;2.30;2.00;;;;;;;;;;5137922;27;20234;-57
2023/01/01 12:28:28;;;;;;;2.63;2.10;;;;;;;;;;5137476;27;20226;-57
2023/01/01 12:31:01;;;;;;;4.03;1.73;;;;;;;;;;5137481;27;20208;-57
2023/01/01 12:33:36;;;;;;;2.13;1.92;;;;;;;;;;5136840;27;20292;-57
2023/01/01 12:36:19;;;;;;;3.08;2.40;;;;;;;;;;5137250;27;20212;-57
2023/01/01 12:39:02;;;;;;;2.40;2.13;;;;;;;;;;5136596;27;20787;-56
2023/01/01 12:41:33;;;;;;;2.88;1.90;;;;;;;;;;5137016;28;20233;-57
2023/01/01 12:44:06;;;;;;;4.07;1.98;;;;;;;;;;5137215;28;20208;-58
2023/01/01 12:46:48;;;;;;;3.22;2.20;;;;;;;;;;5136678;28;20579;-58
2023/01/01 12:49:36;;;;;;;2.13;1.92;;;;;;;;;;5134100;28;20226;-57
2023/01/01 12:52:14;;;;;;;2.80;2.10;;;;;;;;;;5129493;28;20202;-58
2023/01/01 12:54:57;;;;;;;2.10;1.90;;;;;;;;;;5136044;28;20202;-57
2023/01/01 12:57:27;;;;;;;2.55;1.98;;;;;;;;;;5136416;28;20640;-57
2023/01/01 12:59:56;;;;;;;3.13;1.83;;;;;;;;;;5137241;28;20226;-57
2023/01/01 13:02:24;;;;;;;4.68;2.30;;;;;;;;;;5137062;28;20299;-57
2023/01/01 13:04:55;;;;;;;3.05;2.08;;;;;;;;;;5136402;28;20208;-57
2023/01/01 13:07:27;;;;;;;3.40;2.28;;;;;;;;;;5136895;28;20220;-57
2023/01/01 13:09:54;;;;;;;3.67;2.20;;;;;;;;;;5137620;28;20552;-57
2023/01/01 13:12:24;;;;;;;3.28;2.08;;;;;;;;;;5137517;28;20267;-57
2023/01/01 13:14:51;;;;;;;2.88;2.13;;;;;;;;;;5137888;28;20293;-57
2023/01/01 13:17:20;;;;;;;2.70;2.40;;;;;;;;;;5138100;28;20212;-57
2023/01/01 13:19:48;;;;;;;3.25;2.42;;;;;;;;;;5136473;28;20627;-57
2023/01/01 13:22:40;;;;;;;2.42;2.15;;;;;;;;;;5137330;28;20604;-57
2023/01/01 13:25:19;;;;;;;2.47;1.98;;;;;;;;;;5136620;28;20617;-57
2023/01/01 13:28:06;;;;;;;4.20;2.22;;;;;;;;;;5137345;28;20212;-57
2023/01/01 13:30:48;;;;;;;2.88;2.50;;;;;;;;;;5136488;28;20210;-57
2023/01/01 13:33:22;;;;;;;4.30;2.17;;;;;;;;;;5136107;28;20566;-57
2023/01/01 13:36:14;;;;;;;3.25;2.40;;;;;;;;;;5136331;28;20206;-57
2023/01/01 13:38:46;;;;;;;4.20;2.40;;;;;;;;;;5135842;28;20198;-57
2023/01/01 13:41:29;;;;;;;2.88;2.05;;;;;;;;;;5136710;28;20199;-57
2023/01/01 13:44:11;;;;;;;2.20;2.00;;;;;;;;;;5136724;28;20202;-57
2023/01/01 13:46:43;;;;;;;2.67;2.20;;;;;;;;;;5136790;28;20660;-58
2023/01/01 13:49:16;;;;;;;4.00;2.20;;;;;;;;;;5151470;27;20214;-57
2023/01/01 13:51:52;;;;;;;3.38;2.47;;;;;;;;;;5157793;27;20285;-58
2023/01/01 13:54:32;;;;;;;3.03;2.35;;;;;;;;;;5139865;27;20204;-57
2023/01/01 13:57:01;;;;;;;4.10;2.15;;;;;;;;;;5158695;27;20208;-57
2023/01/01 13:59:51;;;;;;;2.47;2.00;;;;;;;;;;5160653;27;20221;-57
2023/01/01 14:02:25;;;;;;;3.45;2.20;;;;;;;;;;5154552;27;20209;-58
2023/01/01 14:04:54;;;;;;;3.22;2.47;;;;;;;;;;5160743;27;20206;-57
2023/01/01 14:07:24;;;;;;;3.50;2.53;;;;;;;;;;5160389;27;20240;-57
2023/01/01 14:09:53;;;;;;;4.30;2.40;;;;;;;;;;5160950;27;20484;-57
2023/01/01 14:12:22;;;;;;;3.00;2.20;;;;;;;;;;5160403;27;20206;-57
2023/01/01 14:14:49;;;;;;;2.47;2.28;;;;;;;;;;5160456;27;20194;-57
2023/01/01 14:17:17;;;;;;;3.30;2.25;;;;;;;;;;5160793;27;20292;-57
2023/01/01 14:19:45;;;;;;;3.58;2.10;;;;;;;;;;5160591;27;20204;-57
2023/01/01 14:22:16;;;;;;;2.65;2.22;;;;;;;;;;5159596;27;20304;-57
2023/01/01 14:24:45;;;;;;;2.63;2.00;;;;;;;;;;5160846;27;20209;-57
2023/01/01 14:27:17;;;;;;;4.15;2.42;;;;;;;;;;5159935;27;20459;-57
2023/01/01 14:29:47;;;;;;;2.83;2.42;;;;;;;;;;5160063;27;20229;-58
2023/01/01 14:32:15;;;;;;;4.18;2.55;;;;;;;;;;5160174;27;20212;-57
2023/01/01 14:34:43;;;;;;;4.30;2.30;;;;;;;;;;5160211;27;20205;-57
2023/01/01 14:37:22;;;;;;;5.35;2.50;;;;;;;;;;5159612;27;20731;-57
2023/01/01 14:40:05;;;;;;;3.78;2.28;;;;;;;;;;5159294;27;20197;-57
2023/01/01 14:42:36;;;;;;;2.58;2.03;;;;;;;;;;5159544;27;20202;-57
2023/01/01 14:45:04;;;;;;;3.20;2.45;;;;;;;;;;5159038;27;20293;-58
2023/01/01 14:47:33;;;;;;;3.28;2.20;;;;;;;;;;5159898;27;20198;-58
2023/01/01 14:50:03;;;;;;;3.10;2.20;;;;;;;;;;5159752;27;20572;-58
2023/01/01 14:52:31;;;;;;;2.72;2.40;;;;;;;;;;5159333;27;20241;-57
2023/01/01 14:54:59;;;;;;;2.92;2.30;;;;;;;;;;5160052;27;20201;-57
2023/01/01 14:57:29;;;;;;;2.45;2.20;;;;;;;;;;5159748;27;20309;-57
2023/01/01 14:59:58;;;;;;;4.03;2.47;;;;;;;;;;5158872;27;20332;-57
2023/01/01 15:02:27;;;;;;;3.13;2.08;;;;;;;;;;5160215;27;20305;-57